Resums METAR propers

 

LIBG - Grottaglie(Civ/A, Italy
Distància des de l'estació: NE 13km
Actualització: 27/01/2021 19:50
NO actualitzat
Alguns núvols
Alguns núvols
 Vent del varies
Vent: varies 6 km/h
Temperatura: 3°C
Rosada: -1°C
Humitat: 75%
Baròmetre: 1016 hPa
Nuvolositat: Alguns núvols
Visibilitat: 10 km
Detalls nuvolositat: Alguns núvols 914 m
2021/01/27 18:50 LIBG 271850Z VRB03KT 9999 FEW030 03/M01 Q1016
LIBH - Marina Di Ginosa, Italy
Distància des de l'estació: O 33km
Actualització: 26/01/2021 20:55
NO actualitzat
Seré
Seré
 Vent del NO
Vent: NO 28 km/h, Ràfega: 46 km/h
Temperatura: 7°C
Sensació: 3°C
Rosada: 3°C
Humitat: 76%
Baròmetre: 1011 hPa
Resum: Seré
Visibilitat: major de 10 km
2021/01/26 19:55 LIBH 261955Z 31015G25KT CAVOK 07/03 Q1011 RMK SKC QUK / QUL / VIS MAR 30 KM VIS MIN 9999
 
LIBV - Gioia Del Colle, Italy
Distància des de l'estació: NO 45km
Actualització: 26/01/2021 20:55
NO actualitzat
Parcialment cobert
Parcialment cobert
 Vent del NNO
Vent: NNO 37 km/h
Temperatura: 3°C
Sensació: -3°C
Rosada: -3°C
Humitat: 65%
Baròmetre: 1011 hPa
Nuvolositat: Parcialment cobert
Visibilitat: 10 km
Detalls nuvolositat: Parcialment cobert 1219 m
2021/01/26 19:55 LIBV 261955Z 33020KT 9999 SCT040 03/M03 Q1011 RMK SCT VIS MIN 9999 WIND THR32 32021KT WIND THR14 31018KT BLU
LIBR - Brindisi/Casale, Italy
Distància des de l'estació: ENE 62km
Actualització: 27/01/2021 20:50
Parcialment cobert
Parcialment cobert
 Vent del NNO
Vent: NNO 20 km/h
Temperatura: 9°C
Sensació: 6°C
Rosada: -5°C
Humitat: 37%
Baròmetre: 1015 hPa
Nuvolositat: Parcialment cobert
Visibilitat: 10 km
Detalls nuvolositat: Parcialment cobert 610 m
2021/01/27 19:50 LIBR 271950Z 34011KT 9999 SCT020 09/M05 Q1015
 
LIBN - Lecce (it-Afb), Italy
Distància des de l'estació: ESE 79km
Actualització: 26/01/2021 20:55
NO actualitzat
Parcialment cobert
Parcialment cobert
 Vent del ONO
Vent: ONO 43 km/h, Ràfega: 69 km/h
Temperatura: 6°C
Sensació: 1°C
Rosada: 4°C
Humitat: 87%
Baròmetre: 1010 hPa
Nuvolositat: Parcialment cobert
Visibilitat: 10 km
Detalls nuvolositat: Parcialment cobert 762 m
Parcialment cobert 914 m
2021/01/26 19:55 LIBN 261955Z 30023G37KT 9999 SCT025 SCT030 06/04 Q1010 RMK BKN VIS MIN 9999 WIND THR14 31020G34KT WIND THR32 31022G33KT BLU
LIBD - Bari/Palese Macc, Italy
Distància des de l'estació: NNO 85km
Actualització: 27/01/2021 20:50
Seré
Seré
 Vent del O
Vent: O 13 km/h
Temperatura: 5°C
Sensació: 2°C
Rosada: -1°C
Humitat: 66%
Baròmetre: 1016 hPa
Resum: Seré
Visibilitat: major de 10 km
2021/01/27 19:50 LIBD 271950Z 26007KT CAVOK 05/M01 Q1016